sensor_id;sensor_type;location;lat;lon;timestamp;P1;durP1;ratioP1;P2;durP2;ratioP2
39344;SDS011;25061;51.954;6.996;2022-07-23T00:00:34;10.60;;;4.57;;
39344;SDS011;25061;51.954;6.996;2022-07-23T00:03:00;8.20;;;3.65;;
39344;SDS011;25061;51.954;6.996;2022-07-23T00:05:26;9.02;;;4.05;;
39344;SDS011;25061;51.954;6.996;2022-07-23T00:07:51;7.53;;;3.30;;
39344;SDS011;25061;51.954;6.996;2022-07-23T00:10:17;9.57;;;3.65;;
39344;SDS011;25061;51.954;6.996;2022-07-23T00:12:42;6.93;;;3.10;;
39344;SDS011;25061;51.954;6.996;2022-07-23T00:15:08;9.80;;;3.47;;
39344;SDS011;25061;51.954;6.996;2022-07-23T00:17:34;7.07;;;3.60;;
39344;SDS011;25061;51.954;6.996;2022-07-23T00:20:00;7.82;;;3.20;;
39344;SDS011;25061;51.954;6.996;2022-07-23T00:22:26;9.30;;;3.75;;
39344;SDS011;25061;51.954;6.996;2022-07-23T00:24:54;8.05;;;3.78;;
39344;SDS011;25061;51.954;6.996;2022-07-23T00:27:19;7.97;;;3.60;;
39344;SDS011;25061;51.954;6.996;2022-07-23T00:29:45;8.20;;;3.47;;
39344;SDS011;25061;51.954;6.996;2022-07-23T00:32:10;7.85;;;3.30;;
39344;SDS011;25061;51.954;6.996;2022-07-23T00:34:36;6.07;;;2.80;;
39344;SDS011;25061;51.954;6.996;2022-07-23T00:37:02;10.57;;;3.70;;
39344;SDS011;25061;51.954;6.996;2022-07-23T00:39:27;10.95;;;3.47;;
39344;SDS011;25061;51.954;6.996;2022-07-23T00:41:53;9.13;;;3.58;;
39344;SDS011;25061;51.954;6.996;2022-07-23T00:44:23;9.48;;;3.20;;
39344;SDS011;25061;51.954;6.996;2022-07-23T00:46:54;7.93;;;3.20;;
39344;SDS011;25061;51.954;6.996;2022-07-23T00:49:22;7.20;;;3.50;;
39344;SDS011;25061;51.954;6.996;2022-07-23T00:51:50;6.93;;;3.60;;
39344;SDS011;25061;51.954;6.996;2022-07-23T00:54:16;8.00;;;3.08;;
39344;SDS011;25061;51.954;6.996;2022-07-23T00:56:43;7.82;;;3.60;;
39344;SDS011;25061;51.954;6.996;2022-07-23T00:59:11;7.07;;;2.85;;
39344;SDS011;25061;51.954;6.996;2022-07-23T01:01:36;7.85;;;3.15;;
39344;SDS011;25061;51.954;6.996;2022-07-23T01:04:03;9.30;;;3.80;;
39344;SDS011;25061;51.954;6.996;2022-07-23T01:06:29;9.70;;;3.70;;
39344;SDS011;25061;51.954;6.996;2022-07-23T01:08:58;8.32;;;3.17;;
39344;SDS011;25061;51.954;6.996;2022-07-23T01:11:24;7.18;;;3.47;;
39344;SDS011;25061;51.954;6.996;2022-07-23T01:13:50;7.10;;;3.40;;
39344;SDS011;25061;51.954;6.996;2022-07-23T01:16:15;7.97;;;3.90;;
39344;SDS011;25061;51.954;6.996;2022-07-23T01:18:41;8.07;;;3.78;;
39344;SDS011;25061;51.954;6.996;2022-07-23T01:21:06;8.20;;;3.22;;
39344;SDS011;25061;51.954;6.996;2022-07-23T01:23:35;8.15;;;3.78;;
39344;SDS011;25061;51.954;6.996;2022-07-23T01:26:01;9.27;;;3.80;;
39344;SDS011;25061;51.954;6.996;2022-07-23T01:28:26;9.63;;;3.50;;
39344;SDS011;25061;51.954;6.996;2022-07-23T01:30:52;8.38;;;3.55;;
39344;SDS011;25061;51.954;6.996;2022-07-23T01:33:17;8.60;;;3.33;;
39344;SDS011;25061;51.954;6.996;2022-07-23T01:35:43;7.45;;;3.75;;
39344;SDS011;25061;51.954;6.996;2022-07-23T01:38:08;9.50;;;4.32;;
39344;SDS011;25061;51.954;6.996;2022-07-23T01:40:34;10.07;;;3.88;;
39344;SDS011;25061;51.954;6.996;2022-07-23T01:42:59;6.60;;;3.53;;
39344;SDS011;25061;51.954;6.996;2022-07-23T01:45:25;7.43;;;3.67;;
39344;SDS011;25061;51.954;6.996;2022-07-23T01:47:50;7.50;;;3.67;;
39344;SDS011;25061;51.954;6.996;2022-07-23T01:50:16;7.70;;;3.85;;
39344;SDS011;25061;51.954;6.996;2022-07-23T01:52:42;9.25;;;4.05;;
39344;SDS011;25061;51.954;6.996;2022-07-23T01:55:08;7.88;;;4.05;;
39344;SDS011;25061;51.954;6.996;2022-07-23T01:57:33;11.60;;;5.22;;
39344;SDS011;25061;51.954;6.996;2022-07-23T01:59:59;9.48;;;4.60;;
39344;SDS011;25061;51.954;6.996;2022-07-23T02:02:24;11.05;;;5.13;;
39344;SDS011;25061;51.954;6.996;2022-07-23T02:04:50;8.98;;;4.05;;
39344;SDS011;25061;51.954;6.996;2022-07-23T02:07:15;9.05;;;4.30;;
39344;SDS011;25061;51.954;6.996;2022-07-23T02:09:41;9.77;;;4.78;;
39344;SDS011;25061;51.954;6.996;2022-07-23T02:12:07;9.13;;;4.57;;
39344;SDS011;25061;51.954;6.996;2022-07-23T02:14:33;10.00;;;4.43;;
39344;SDS011;25061;51.954;6.996;2022-07-23T02:16:58;11.20;;;4.82;;
39344;SDS011;25061;51.954;6.996;2022-07-23T02:19:24;9.27;;;4.90;;
39344;SDS011;25061;51.954;6.996;2022-07-23T02:21:50;10.48;;;4.80;;
39344;SDS011;25061;51.954;6.996;2022-07-23T02:24:16;12.63;;;5.32;;
39344;SDS011;25061;51.954;6.996;2022-07-23T02:26:42;9.48;;;4.85;;
39344;SDS011;25061;51.954;6.996;2022-07-23T02:29:08;11.07;;;5.03;;
39344;SDS011;25061;51.954;6.996;2022-07-23T02:31:34;12.05;;;5.60;;
39344;SDS011;25061;51.954;6.996;2022-07-23T02:33:59;9.90;;;5.38;;
39344;SDS011;25061;51.954;6.996;2022-07-23T02:36:26;11.27;;;5.22;;
39344;SDS011;25061;51.954;6.996;2022-07-23T02:38:52;11.25;;;5.90;;
39344;SDS011;25061;51.954;6.996;2022-07-23T02:41:19;10.43;;;5.20;;
39344;SDS011;25061;51.954;6.996;2022-07-23T02:43:44;10.55;;;5.30;;
39344;SDS011;25061;51.954;6.996;2022-07-23T02:46:10;9.50;;;5.15;;
39344;SDS011;25061;51.954;6.996;2022-07-23T02:48:36;10.90;;;5.47;;
39344;SDS011;25061;51.954;6.996;2022-07-23T02:51:01;8.98;;;4.80;;
39344;SDS011;25061;51.954;6.996;2022-07-23T02:53:27;10.23;;;5.57;;
39344;SDS011;25061;51.954;6.996;2022-07-23T02:55:52;13.15;;;6.20;;
39344;SDS011;25061;51.954;6.996;2022-07-23T02:58:18;11.00;;;5.50;;
39344;SDS011;25061;51.954;6.996;2022-07-23T03:00:43;9.07;;;5.13;;
39344;SDS011;25061;51.954;6.996;2022-07-23T03:03:09;11.23;;;5.38;;
39344;SDS011;25061;51.954;6.996;2022-07-23T03:05:34;10.98;;;5.28;;
39344;SDS011;25061;51.954;6.996;2022-07-23T03:08:00;12.75;;;5.43;;
39344;SDS011;25061;51.954;6.996;2022-07-23T03:10:26;11.77;;;5.78;;
39344;SDS011;25061;51.954;6.996;2022-07-23T03:12:52;9.52;;;5.18;;
39344;SDS011;25061;51.954;6.996;2022-07-23T03:15:17;10.13;;;5.10;;
39344;SDS011;25061;51.954;6.996;2022-07-23T03:17:43;9.90;;;5.40;;
39344;SDS011;25061;51.954;6.996;2022-07-23T03:20:08;9.80;;;5.78;;
39344;SDS011;25061;51.954;6.996;2022-07-23T03:22:34;10.90;;;5.22;;
39344;SDS011;25061;51.954;6.996;2022-07-23T03:25:00;10.90;;;5.53;;
39344;SDS011;25061;51.954;6.996;2022-07-23T03:27:27;10.68;;;5.45;;
39344;SDS011;25061;51.954;6.996;2022-07-23T03:29:55;12.20;;;5.60;;
39344;SDS011;25061;51.954;6.996;2022-07-23T03:32:22;9.82;;;5.72;;
39344;SDS011;25061;51.954;6.996;2022-07-23T03:34:48;10.95;;;6.28;;
39344;SDS011;25061;51.954;6.996;2022-07-23T03:37:14;9.73;;;5.50;;
39344;SDS011;25061;51.954;6.996;2022-07-23T03:39:40;9.70;;;5.30;;
39344;SDS011;25061;51.954;6.996;2022-07-23T03:42:06;12.55;;;5.95;;
39344;SDS011;25061;51.954;6.996;2022-07-23T03:44:32;11.90;;;5.78;;
39344;SDS011;25061;51.954;6.996;2022-07-23T03:46:58;11.45;;;5.78;;
39344;SDS011;25061;51.954;6.996;2022-07-23T03:49:23;11.45;;;5.95;;
39344;SDS011;25061;51.954;6.996;2022-07-23T03:51:49;10.80;;;6.03;;
39344;SDS011;25061;51.954;6.996;2022-07-23T03:54:15;9.50;;;5.63;;
39344;SDS011;25061;51.954;6.996;2022-07-23T03:56:40;9.80;;;5.68;;
39344;SDS011;25061;51.954;6.996;2022-07-23T03:59:07;11.02;;;5.28;;
39344;SDS011;25061;51.954;6.996;2022-07-23T04:01:33;13.25;;;6.30;;
39344;SDS011;25061;51.954;6.996;2022-07-23T04:03:59;10.20;;;5.65;;
39344;SDS011;25061;51.954;6.996;2022-07-23T04:06:24;13.52;;;6.50;;
39344;SDS011;25061;51.954;6.996;2022-07-23T04:08:50;10.70;;;5.95;;
39344;SDS011;25061;51.954;6.996;2022-07-23T04:11:15;10.98;;;5.78;;
39344;SDS011;25061;51.954;6.996;2022-07-23T04:13:41;12.30;;;6.10;;
39344;SDS011;25061;51.954;6.996;2022-07-23T04:16:06;11.82;;;5.93;;
39344;SDS011;25061;51.954;6.996;2022-07-23T04:18:32;10.07;;;5.95;;
39344;SDS011;25061;51.954;6.996;2022-07-23T04:20:58;10.30;;;5.80;;
39344;SDS011;25061;51.954;6.996;2022-07-23T04:23:24;10.75;;;6.13;;
39344;SDS011;25061;51.954;6.996;2022-07-23T04:25:49;9.77;;;5.40;;
39344;SDS011;25061;51.954;6.996;2022-07-23T04:28:15;10.80;;;5.55;;
39344;SDS011;25061;51.954;6.996;2022-07-23T04:30:40;8.82;;;5.53;;
39344;SDS011;25061;51.954;6.996;2022-07-23T04:33:06;10.52;;;5.70;;
39344;SDS011;25061;51.954;6.996;2022-07-23T04:35:35;9.27;;;5.72;;
39344;SDS011;25061;51.954;6.996;2022-07-23T04:38:01;9.77;;;5.63;;
39344;SDS011;25061;51.954;6.996;2022-07-23T04:40:27;9.95;;;5.47;;
39344;SDS011;25061;51.954;6.996;2022-07-23T04:42:53;10.77;;;5.80;;
39344;SDS011;25061;51.954;6.996;2022-07-23T04:45:19;9.68;;;5.05;;
39344;SDS011;25061;51.954;6.996;2022-07-23T04:47:45;9.85;;;5.57;;
39344;SDS011;25061;51.954;6.996;2022-07-23T04:50:10;11.60;;;5.20;;
39344;SDS011;25061;51.954;6.996;2022-07-23T04:52:36;9.45;;;5.13;;
39344;SDS011;25061;51.954;6.996;2022-07-23T04:55:02;8.52;;;4.80;;
39344;SDS011;25061;51.954;6.996;2022-07-23T04:57:29;9.35;;;5.20;;
39344;SDS011;25061;51.954;6.996;2022-07-23T04:59:54;11.30;;;5.38;;
39344;SDS011;25061;51.954;6.996;2022-07-23T05:02:20;8.52;;;4.70;;
39344;SDS011;25061;51.954;6.996;2022-07-23T05:04:45;10.10;;;4.60;;
39344;SDS011;25061;51.954;6.996;2022-07-23T05:07:11;9.52;;;5.00;;
39344;SDS011;25061;51.954;6.996;2022-07-23T05:09:36;9.60;;;5.10;;
39344;SDS011;25061;51.954;6.996;2022-07-23T05:12:02;8.52;;;4.68;;
39344;SDS011;25061;51.954;6.996;2022-07-23T05:14:28;10.65;;;4.80;;
39344;SDS011;25061;51.954;6.996;2022-07-23T05:16:54;10.13;;;5.28;;
39344;SDS011;25061;51.954;6.996;2022-07-23T05:19:19;9.60;;;4.57;;
39344;SDS011;25061;51.954;6.996;2022-07-23T05:21:45;8.95;;;4.10;;
39344;SDS011;25061;51.954;6.996;2022-07-23T05:24:10;8.30;;;4.53;;
39344;SDS011;25061;51.954;6.996;2022-07-23T05:26:36;9.05;;;4.78;;
39344;SDS011;25061;51.954;6.996;2022-07-23T05:29:01;8.02;;;4.30;;
39344;SDS011;25061;51.954;6.996;2022-07-23T05:31:27;9.20;;;4.90;;
39344;SDS011;25061;51.954;6.996;2022-07-23T05:33:53;11.23;;;4.60;;
39344;SDS011;25061;51.954;6.996;2022-07-23T05:36:18;8.55;;;4.53;;
39344;SDS011;25061;51.954;6.996;2022-07-23T05:38:45;11.20;;;4.90;;
39344;SDS011;25061;51.954;6.996;2022-07-23T05:41:10;7.63;;;4.20;;
39344;SDS011;25061;51.954;6.996;2022-07-23T05:43:36;10.57;;;4.53;;
39344;SDS011;25061;51.954;6.996;2022-07-23T05:46:01;8.00;;;4.40;;
39344;SDS011;25061;51.954;6.996;2022-07-23T05:48:27;9.10;;;4.65;;
39344;SDS011;25061;51.954;6.996;2022-07-23T05:50:52;11.07;;;4.78;;
39344;SDS011;25061;51.954;6.996;2022-07-23T05:53:18;10.38;;;5.45;;
39344;SDS011;25061;51.954;6.996;2022-07-23T05:55:44;9.27;;;4.65;;
39344;SDS011;25061;51.954;6.996;2022-07-23T05:58:09;7.72;;;4.38;;
39344;SDS011;25061;51.954;6.996;2022-07-23T06:00:35;8.85;;;5.00;;
39344;SDS011;25061;51.954;6.996;2022-07-23T06:03:00;9.90;;;5.15;;
39344;SDS011;25061;51.954;6.996;2022-07-23T06:05:26;7.75;;;4.32;;
39344;SDS011;25061;51.954;6.996;2022-07-23T06:07:52;13.82;;;4.70;;
39344;SDS011;25061;51.954;6.996;2022-07-23T06:10:18;7.90;;;4.32;;
39344;SDS011;25061;51.954;6.996;2022-07-23T06:12:43;8.48;;;4.40;;
39344;SDS011;25061;51.954;6.996;2022-07-23T06:15:09;10.10;;;4.50;;
39344;SDS011;25061;51.954;6.996;2022-07-23T06:17:36;10.73;;;4.20;;
39344;SDS011;25061;51.954;6.996;2022-07-23T06:20:04;9.35;;;4.78;;
39344;SDS011;25061;51.954;6.996;2022-07-23T06:22:31;8.77;;;3.97;;
39344;SDS011;25061;51.954;6.996;2022-07-23T06:24:56;9.20;;;3.80;;
39344;SDS011;25061;51.954;6.996;2022-07-23T06:27:22;7.97;;;3.65;;
39344;SDS011;25061;51.954;6.996;2022-07-23T06:29:47;8.63;;;3.28;;
39344;SDS011;25061;51.954;6.996;2022-07-23T06:32:13;12.32;;;3.50;;
39344;SDS011;25061;51.954;6.996;2022-07-23T06:34:38;10.68;;;3.80;;
39344;SDS011;25061;51.954;6.996;2022-07-23T06:37:04;7.45;;;3.65;;
39344;SDS011;25061;51.954;6.996;2022-07-23T06:39:30;7.82;;;3.58;;
39344;SDS011;25061;51.954;6.996;2022-07-23T06:41:55;5.63;;;2.50;;
39344;SDS011;25061;51.954;6.996;2022-07-23T06:44:21;7.93;;;3.45;;
39344;SDS011;25061;51.954;6.996;2022-07-23T06:46:46;5.88;;;2.30;;
39344;SDS011;25061;51.954;6.996;2022-07-23T06:49:12;7.03;;;2.60;;
39344;SDS011;25061;51.954;6.996;2022-07-23T06:51:38;7.15;;;2.60;;
39344;SDS011;25061;51.954;6.996;2022-07-23T06:54:03;7.07;;;3.03;;
39344;SDS011;25061;51.954;6.996;2022-07-23T06:56:29;8.02;;;2.80;;
39344;SDS011;25061;51.954;6.996;2022-07-23T06:58:54;5.63;;;2.90;;
39344;SDS011;25061;51.954;6.996;2022-07-23T07:01:20;8.35;;;3.13;;
39344;SDS011;25061;51.954;6.996;2022-07-23T07:03:46;7.60;;;3.38;;
39344;SDS011;25061;51.954;6.996;2022-07-23T07:06:12;7.20;;;3.40;;
39344;SDS011;25061;51.954;6.996;2022-07-23T07:08:38;6.75;;;3.00;;
39344;SDS011;25061;51.954;6.996;2022-07-23T07:11:03;6.47;;;3.10;;
39344;SDS011;25061;51.954;6.996;2022-07-23T07:13:29;6.78;;;3.30;;
39344;SDS011;25061;51.954;6.996;2022-07-23T07:15:55;9.30;;;2.97;;
39344;SDS011;25061;51.954;6.996;2022-07-23T07:18:20;8.68;;;3.10;;
39344;SDS011;25061;51.954;6.996;2022-07-23T07:20:46;8.90;;;2.78;;
39344;SDS011;25061;51.954;6.996;2022-07-23T07:23:11;5.97;;;2.70;;
39344;SDS011;25061;51.954;6.996;2022-07-23T07:25:37;7.68;;;2.55;;
39344;SDS011;25061;51.954;6.996;2022-07-23T07:28:03;5.13;;;1.80;;
39344;SDS011;25061;51.954;6.996;2022-07-23T07:30:29;5.72;;;2.38;;
39344;SDS011;25061;51.954;6.996;2022-07-23T07:32:54;9.65;;;2.75;;
39344;SDS011;25061;51.954;6.996;2022-07-23T07:35:20;7.45;;;2.63;;
39344;SDS011;25061;51.954;6.996;2022-07-23T07:37:46;4.03;;;2.00;;
39344;SDS011;25061;51.954;6.996;2022-07-23T07:40:11;5.82;;;1.90;;
39344;SDS011;25061;51.954;6.996;2022-07-23T07:42:47;6.45;;;1.67;;
39344;SDS011;25061;51.954;6.996;2022-07-23T07:45:14;4.82;;;1.92;;
39344;SDS011;25061;51.954;6.996;2022-07-23T07:47:40;3.55;;;1.73;;
39344;SDS011;25061;51.954;6.996;2022-07-23T07:50:06;5.57;;;1.90;;
39344;SDS011;25061;51.954;6.996;2022-07-23T07:52:33;4.72;;;1.40;;
39344;SDS011;25061;51.954;6.996;2022-07-23T07:55:01;5.32;;;1.52;;
39344;SDS011;25061;51.954;6.996;2022-07-23T07:57:28;4.32;;;1.70;;
39344;SDS011;25061;51.954;6.996;2022-07-23T07:59:53;6.63;;;1.63;;
39344;SDS011;25061;51.954;6.996;2022-07-23T08:02:19;6.30;;;1.85;;
39344;SDS011;25061;51.954;6.996;2022-07-23T08:04:44;7.43;;;2.03;;
39344;SDS011;25061;51.954;6.996;2022-07-23T08:07:10;7.05;;;2.10;;
39344;SDS011;25061;51.954;6.996;2022-07-23T08:09:35;4.35;;;1.88;;
39344;SDS011;25061;51.954;6.996;2022-07-23T08:12:01;5.03;;;1.70;;
39344;SDS011;25061;51.954;6.996;2022-07-23T08:14:26;5.32;;;1.90;;
39344;SDS011;25061;51.954;6.996;2022-07-23T08:16:52;4.43;;;1.60;;
39344;SDS011;25061;51.954;6.996;2022-07-23T08:19:17;5.38;;;1.80;;
39344;SDS011;25061;51.954;6.996;2022-07-23T08:21:43;6.72;;;2.42;;
39344;SDS011;25061;51.954;6.996;2022-07-23T08:24:08;8.05;;;1.70;;
39344;SDS011;25061;51.954;6.996;2022-07-23T08:26:34;5.35;;;1.80;;
39344;SDS011;25061;51.954;6.996;2022-07-23T08:28:59;7.32;;;1.73;;
39344;SDS011;25061;51.954;6.996;2022-07-23T08:31:25;3.75;;;1.58;;
39344;SDS011;25061;51.954;6.996;2022-07-23T08:33:50;5.20;;;1.58;;
39344;SDS011;25061;51.954;6.996;2022-07-23T08:36:17;5.65;;;1.77;;
39344;SDS011;25061;51.954;6.996;2022-07-23T08:38:43;7.55;;;1.42;;
39344;SDS011;25061;51.954;6.996;2022-07-23T08:41:08;3.22;;;1.27;;
39344;SDS011;25061;51.954;6.996;2022-07-23T08:43:34;4.40;;;1.52;;
39344;SDS011;25061;51.954;6.996;2022-07-23T08:46:01;9.20;;;1.98;;
39344;SDS011;25061;51.954;6.996;2022-07-23T08:48:29;5.28;;;2.03;;
39344;SDS011;25061;51.954;6.996;2022-07-23T08:50:57;3.47;;;1.45;;
39344;SDS011;25061;51.954;6.996;2022-07-23T08:53:25;4.38;;;1.60;;
39344;SDS011;25061;51.954;6.996;2022-07-23T08:55:52;6.47;;;1.50;;
39344;SDS011;25061;51.954;6.996;2022-07-23T08:58:22;5.65;;;1.77;;
39344;SDS011;25061;51.954;6.996;2022-07-23T09:00:48;6.43;;;2.15;;
39344;SDS011;25061;51.954;6.996;2022-07-23T09:03:21;5.13;;;1.52;;
39344;SDS011;25061;51.954;6.996;2022-07-23T09:05:50;4.35;;;1.70;;
39344;SDS011;25061;51.954;6.996;2022-07-23T09:08:17;3.70;;;1.30;;
39344;SDS011;25061;51.954;6.996;2022-07-23T09:10:47;5.55;;;1.40;;
39344;SDS011;25061;51.954;6.996;2022-07-23T09:13:24;4.88;;;1.40;;
39344;SDS011;25061;51.954;6.996;2022-07-23T09:15:52;4.55;;;1.67;;
39344;SDS011;25061;51.954;6.996;2022-07-23T09:18:19;4.00;;;1.75;;
39344;SDS011;25061;51.954;6.996;2022-07-23T09:20:54;5.25;;;1.55;;
39344;SDS011;25061;51.954;6.996;2022-07-23T09:23:45;2.92;;;1.05;;
39344;SDS011;25061;51.954;6.996;2022-07-23T09:26:55;5.25;;;1.70;;
39344;SDS011;25061;51.954;6.996;2022-07-23T09:29:16;4.05;;;1.40;;
39344;SDS011;25061;51.954;6.996;2022-07-23T09:31:50;4.53;;;1.50;;
39344;SDS011;25061;51.954;6.996;2022-07-23T09:36:51;7.15;;;1.42;;
39344;SDS011;25061;51.954;6.996;2022-07-23T09:41:52;4.05;;;1.40;;
39344;SDS011;25061;51.954;6.996;2022-07-23T09:44:19;5.03;;;1.40;;
39344;SDS011;25061;51.954;6.996;2022-07-23T09:46:46;5.10;;;1.38;;
39344;SDS011;25061;51.954;6.996;2022-07-23T09:49:15;3.65;;;1.45;;
39344;SDS011;25061;51.954;6.996;2022-07-23T09:51:50;5.35;;;1.52;;
39344;SDS011;25061;51.954;6.996;2022-07-23T09:56:55;4.03;;;1.30;;
39344;SDS011;25061;51.954;6.996;2022-07-23T09:59:23;2.50;;;1.30;;
39344;SDS011;25061;51.954;6.996;2022-07-23T10:01:57;3.33;;;1.25;;
39344;SDS011;25061;51.954;6.996;2022-07-23T10:04:25;3.03;;;1.30;;
39344;SDS011;25061;51.954;6.996;2022-07-23T10:06:52;3.78;;;1.30;;
39344;SDS011;25061;51.954;6.996;2022-07-23T10:11:55;4.85;;;1.30;;
39344;SDS011;25061;51.954;6.996;2022-07-23T10:14:42;3.92;;;1.30;;
39344;SDS011;25061;51.954;6.996;2022-07-23T10:17:08;5.50;;;1.70;;
39344;SDS011;25061;51.954;6.996;2022-07-23T10:19:34;3.58;;;1.40;;
39344;SDS011;25061;51.954;6.996;2022-07-23T10:22:00;8.43;;;1.75;;
39344;SDS011;25061;51.954;6.996;2022-07-23T10:27:37;3.30;;;1.40;;
39344;SDS011;25061;51.954;6.996;2022-07-23T10:36:23;2.60;;;1.17;;
39344;SDS011;25061;51.954;6.996;2022-07-23T10:38:47;4.45;;;1.52;;
39344;SDS011;25061;51.954;6.996;2022-07-23T10:41:39;4.80;;;1.45;;
39344;SDS011;25061;51.954;6.996;2022-07-23T10:46:32;3.90;;;1.20;;
39344;SDS011;25061;51.954;6.996;2022-07-23T10:49:28;3.30;;;1.30;;
39344;SDS011;25061;51.954;6.996;2022-07-23T10:54:43;2.83;;;1.00;;
39344;SDS011;25061;51.954;6.996;2022-07-23T10:57:10;3.05;;;1.00;;
39344;SDS011;25061;51.954;6.996;2022-07-23T11:02:32;3.58;;;1.20;;
39344;SDS011;25061;51.954;6.996;2022-07-23T11:05:00;3.40;;;1.33;;
39344;SDS011;25061;51.954;6.996;2022-07-23T11:07:29;3.53;;;1.50;;
39344;SDS011;25061;51.954;6.996;2022-07-23T11:09:55;4.88;;;1.73;;
39344;SDS011;25061;51.954;6.996;2022-07-23T11:17:27;6.28;;;1.70;;
39344;SDS011;25061;51.954;6.996;2022-07-23T11:22:46;3.33;;;1.35;;
39344;SDS011;25061;51.954;6.996;2022-07-23T11:25:35;4.75;;;1.48;;
39344;SDS011;25061;51.954;6.996;2022-07-23T11:28:16;4.60;;;1.40;;
39344;SDS011;25061;51.954;6.996;2022-07-23T11:30:46;4.97;;;1.30;;
39344;SDS011;25061;51.954;6.996;2022-07-23T11:35:39;3.45;;;1.25;;
39344;SDS011;25061;51.954;6.996;2022-07-23T11:38:16;4.53;;;1.25;;
39344;SDS011;25061;51.954;6.996;2022-07-23T11:40:50;2.92;;;1.05;;
39344;SDS011;25061;51.954;6.996;2022-07-23T11:43:18;5.82;;;1.33;;
39344;SDS011;25061;51.954;6.996;2022-07-23T11:45:47;3.80;;;1.25;;
39344;SDS011;25061;51.954;6.996;2022-07-23T11:48:16;5.60;;;1.77;;
39344;SDS011;25061;51.954;6.996;2022-07-23T11:50:47;4.50;;;1.50;;
39344;SDS011;25061;51.954;6.996;2022-07-23T11:53:13;2.47;;;1.10;;
39344;SDS011;25061;51.954;6.996;2022-07-23T11:55:47;4.57;;;1.58;;
39344;SDS011;25061;51.954;6.996;2022-07-23T11:58:12;3.47;;;1.33;;
39344;SDS011;25061;51.954;6.996;2022-07-23T12:00:40;2.40;;;1.00;;
39344;SDS011;25061;51.954;6.996;2022-07-23T12:03:06;5.10;;;1.95;;
39344;SDS011;25061;51.954;6.996;2022-07-23T12:05:32;2.50;;;0.95;;
39344;SDS011;25061;51.954;6.996;2022-07-23T12:08:02;2.25;;;0.93;;
39344;SDS011;25061;51.954;6.996;2022-07-23T12:10:32;3.90;;;1.20;;
39344;SDS011;25061;51.954;6.996;2022-07-23T12:13:03;4.55;;;1.23;;
39344;SDS011;25061;51.954;6.996;2022-07-23T12:15:31;4.45;;;1.30;;
39344;SDS011;25061;51.954;6.996;2022-07-23T12:20:29;4.03;;;1.30;;
39344;SDS011;25061;51.954;6.996;2022-07-23T12:23:01;4.97;;;1.35;;
39344;SDS011;25061;51.954;6.996;2022-07-23T12:25:29;2.73;;;1.30;;
39344;SDS011;25061;51.954;6.996;2022-07-23T12:30:33;4.88;;;1.58;;
39344;SDS011;25061;51.954;6.996;2022-07-23T12:33:03;4.97;;;1.85;;
39344;SDS011;25061;51.954;6.996;2022-07-23T12:35:30;3.80;;;1.35;;
39344;SDS011;25061;51.954;6.996;2022-07-23T12:38:10;3.95;;;1.25;;
39344;SDS011;25061;51.954;6.996;2022-07-23T12:40:44;3.05;;;1.15;;
39344;SDS011;25061;51.954;6.996;2022-07-23T12:46:07;4.20;;;1.40;;
39344;SDS011;25061;51.954;6.996;2022-07-23T12:48:39;4.03;;;1.23;;
39344;SDS011;25061;51.954;6.996;2022-07-23T12:53:49;4.85;;;1.50;;
39344;SDS011;25061;51.954;6.996;2022-07-23T12:58:56;3.92;;;1.60;;
39344;SDS011;25061;51.954;6.996;2022-07-23T13:01:24;3.55;;;1.40;;
39344;SDS011;25061;51.954;6.996;2022-07-23T13:03:56;4.55;;;1.65;;
39344;SDS011;25061;51.954;6.996;2022-07-23T13:06:27;3.75;;;1.45;;
39344;SDS011;25061;51.954;6.996;2022-07-23T13:08:58;6.18;;;1.73;;
39344;SDS011;25061;51.954;6.996;2022-07-23T13:11:25;6.13;;;1.73;;
39344;SDS011;25061;51.954;6.996;2022-07-23T13:13:50;3.85;;;1.48;;
39344;SDS011;25061;51.954;6.996;2022-07-23T13:16:16;5.07;;;1.70;;
39344;SDS011;25061;51.954;6.996;2022-07-23T13:18:42;4.07;;;1.50;;
39344;SDS011;25061;51.954;6.996;2022-07-23T13:21:08;4.75;;;1.67;;
39344;SDS011;25061;51.954;6.996;2022-07-23T13:23:33;5.90;;;1.80;;
39344;SDS011;25061;51.954;6.996;2022-07-23T13:25:59;6.97;;;2.15;;
39344;SDS011;25061;51.954;6.996;2022-07-23T13:28:25;5.40;;;1.80;;
39344;SDS011;25061;51.954;6.996;2022-07-23T13:30:50;3.90;;;1.70;;
39344;SDS011;25061;51.954;6.996;2022-07-23T13:33:21;6.00;;;1.90;;
39344;SDS011;25061;51.954;6.996;2022-07-23T13:35:48;6.35;;;1.90;;
39344;SDS011;25061;51.954;6.996;2022-07-23T13:38:15;4.47;;;1.85;;
39344;SDS011;25061;51.954;6.996;2022-07-23T13:40:41;5.00;;;2.00;;
39344;SDS011;25061;51.954;6.996;2022-07-23T13:43:09;5.43;;;1.60;;
39344;SDS011;25061;51.954;6.996;2022-07-23T13:45:36;4.13;;;1.48;;
39344;SDS011;25061;51.954;6.996;2022-07-23T13:48:03;5.80;;;1.75;;
39344;SDS011;25061;51.954;6.996;2022-07-23T13:50:29;5.65;;;2.10;;
39344;SDS011;25061;51.954;6.996;2022-07-23T13:52:55;5.70;;;2.13;;
39344;SDS011;25061;51.954;6.996;2022-07-23T13:55:20;8.07;;;2.28;;
39344;SDS011;25061;51.954;6.996;2022-07-23T13:57:46;4.63;;;1.70;;
39344;SDS011;25061;51.954;6.996;2022-07-23T14:00:12;7.35;;;2.00;;
39344;SDS011;25061;51.954;6.996;2022-07-23T14:02:38;5.28;;;1.67;;
39344;SDS011;25061;51.954;6.996;2022-07-23T14:05:05;5.40;;;2.13;;
39344;SDS011;25061;51.954;6.996;2022-07-23T14:07:34;6.90;;;1.90;;
39344;SDS011;25061;51.954;6.996;2022-07-23T14:10:00;5.45;;;1.80;;
39344;SDS011;25061;51.954;6.996;2022-07-23T14:12:27;4.32;;;1.63;;
39344;SDS011;25061;51.954;6.996;2022-07-23T14:14:53;9.45;;;2.40;;
39344;SDS011;25061;51.954;6.996;2022-07-23T14:17:18;6.40;;;1.80;;
39344;SDS011;25061;51.954;6.996;2022-07-23T14:19:44;5.40;;;1.65;;
39344;SDS011;25061;51.954;6.996;2022-07-23T14:22:10;7.15;;;2.25;;
39344;SDS011;25061;51.954;6.996;2022-07-23T14:24:35;5.85;;;1.77;;
39344;SDS011;25061;51.954;6.996;2022-07-23T14:27:02;7.15;;;1.95;;
39344;SDS011;25061;51.954;6.996;2022-07-23T14:29:29;5.07;;;1.50;;
39344;SDS011;25061;51.954;6.996;2022-07-23T14:31:54;5.03;;;1.85;;
39344;SDS011;25061;51.954;6.996;2022-07-23T14:34:21;5.72;;;2.15;;
39344;SDS011;25061;51.954;6.996;2022-07-23T14:36:46;5.82;;;2.20;;
39344;SDS011;25061;51.954;6.996;2022-07-23T14:39:12;5.95;;;2.10;;
39344;SDS011;25061;51.954;6.996;2022-07-23T14:41:38;8.48;;;1.83;;
39344;SDS011;25061;51.954;6.996;2022-07-23T14:44:04;5.95;;;1.90;;
39344;SDS011;25061;51.954;6.996;2022-07-23T14:46:30;6.80;;;2.17;;
39344;SDS011;25061;51.954;6.996;2022-07-23T14:48:56;4.63;;;1.67;;
39344;SDS011;25061;51.954;6.996;2022-07-23T14:51:21;5.95;;;2.03;;
39344;SDS011;25061;51.954;6.996;2022-07-23T14:53:47;4.57;;;1.73;;
39344;SDS011;25061;51.954;6.996;2022-07-23T14:56:13;4.93;;;1.75;;
39344;SDS011;25061;51.954;6.996;2022-07-23T14:58:39;4.20;;;1.85;;
39344;SDS011;25061;51.954;6.996;2022-07-23T15:01:06;4.63;;;1.80;;
39344;SDS011;25061;51.954;6.996;2022-07-23T15:03:32;4.45;;;1.67;;
39344;SDS011;25061;51.954;6.996;2022-07-23T15:05:58;4.50;;;1.83;;
39344;SDS011;25061;51.954;6.996;2022-07-23T15:08:23;7.32;;;2.00;;
39344;SDS011;25061;51.954;6.996;2022-07-23T15:10:49;6.70;;;2.10;;
39344;SDS011;25061;51.954;6.996;2022-07-23T15:13:15;7.10;;;2.13;;
39344;SDS011;25061;51.954;6.996;2022-07-23T15:15:40;22.13;;;15.35;;
39344;SDS011;25061;51.954;6.996;2022-07-23T15:18:06;7.20;;;3.10;;
39344;SDS011;25061;51.954;6.996;2022-07-23T15:20:31;7.13;;;2.90;;
39344;SDS011;25061;51.954;6.996;2022-07-23T15:22:57;8.55;;;4.68;;
39344;SDS011;25061;51.954;6.996;2022-07-23T15:25:23;7.05;;;2.50;;
39344;SDS011;25061;51.954;6.996;2022-07-23T15:27:48;9.57;;;4.72;;
39344;SDS011;25061;51.954;6.996;2022-07-23T15:30:14;7.85;;;4.72;;
39344;SDS011;25061;51.954;6.996;2022-07-23T15:32:40;8.23;;;2.50;;
39344;SDS011;25061;51.954;6.996;2022-07-23T15:35:05;6.43;;;2.40;;